Search METAR Data

METAR Data for ENDU:

ENDU 241550Z 10009KT 070V130 9999 FEW035 BKN050 05/M02 Q1009 NOSIG RMK WIND 1100FT 27003KT WIND 2200FT 12012KT